sensor_id;sensor_type;location;lat;lon;timestamp;P1;durP1;ratioP1;P2;durP2;ratioP2
50689;SDS011;54375;48.298;11.238;2023-03-03T00:05:44;89.57;;;32.15;;
50689;SDS011;54375;48.298;11.238;2023-03-03T00:20:48;92.40;;;35.75;;
50689;SDS011;54375;48.298;11.238;2023-03-03T00:35:54;73.28;;;29.88;;
50689;SDS011;54375;48.298;11.238;2023-03-03T00:50:57;88.63;;;31.88;;
50689;SDS011;54375;48.298;11.238;2023-03-03T01:06:00;91.10;;;32.60;;
50689;SDS011;54375;48.298;11.238;2023-03-03T01:21:03;86.05;;;30.60;;
50689;SDS011;54375;48.298;11.238;2023-03-03T01:36:06;68.65;;;27.95;;
50689;SDS011;54375;48.298;11.238;2023-03-03T01:51:11;98.80;;;33.92;;
50689;SDS011;54375;48.298;11.238;2023-03-03T02:06:22;157.20;;;53.65;;
50689;SDS011;54375;48.298;11.238;2023-03-03T02:21:28;87.78;;;34.67;;
50689;SDS011;54375;48.298;11.238;2023-03-03T02:36:31;87.53;;;30.65;;
50689;SDS011;54375;48.298;11.238;2023-03-03T02:51:35;99.28;;;36.30;;
50689;SDS011;54375;48.298;11.238;2023-03-03T03:06:39;95.05;;;36.03;;
50689;SDS011;54375;48.298;11.238;2023-03-03T03:21:42;89.40;;;30.42;;
50689;SDS011;54375;48.298;11.238;2023-03-03T03:36:46;67.25;;;27.45;;
50689;SDS011;54375;48.298;11.238;2023-03-03T03:51:50;91.35;;;33.40;;
50689;SDS011;54375;48.298;11.238;2023-03-03T04:06:52;92.80;;;35.80;;
50689;SDS011;54375;48.298;11.238;2023-03-03T04:21:54;83.00;;;32.65;;
50689;SDS011;54375;48.298;11.238;2023-03-03T04:36:57;107.03;;;37.55;;
50689;SDS011;54375;48.298;11.238;2023-03-03T04:52:00;97.55;;;38.88;;
50689;SDS011;54375;48.298;11.238;2023-03-03T05:07:02;95.00;;;36.80;;
50689;SDS011;54375;48.298;11.238;2023-03-03T05:22:05;96.45;;;37.65;;
50689;SDS011;54375;48.298;11.238;2023-03-03T05:37:08;98.95;;;38.33;;
50689;SDS011;54375;48.298;11.238;2023-03-03T05:52:10;90.88;;;38.13;;
50689;SDS011;54375;48.298;11.238;2023-03-03T06:07:12;91.00;;;37.08;;
50689;SDS011;54375;48.298;11.238;2023-03-03T06:22:15;90.75;;;36.45;;
50689;SDS011;54375;48.298;11.238;2023-03-03T06:37:17;91.25;;;38.88;;
50689;SDS011;54375;48.298;11.238;2023-03-03T06:52:21;100.18;;;39.65;;
50689;SDS011;54375;48.298;11.238;2023-03-03T07:07:25;91.13;;;37.40;;
50689;SDS011;54375;48.298;11.238;2023-03-03T07:22:27;96.68;;;41.70;;
50689;SDS011;54375;48.298;11.238;2023-03-03T07:37:33;95.45;;;41.17;;
50689;SDS011;54375;48.298;11.238;2023-03-03T07:52:39;89.47;;;39.22;;
50689;SDS011;54375;48.298;11.238;2023-03-03T08:07:42;88.70;;;40.65;;
50689;SDS011;54375;48.298;11.238;2023-03-03T08:22:44;87.07;;;41.80;;
50689;SDS011;54375;48.298;11.238;2023-03-03T08:37:47;89.40;;;41.92;;
50689;SDS011;54375;48.298;11.238;2023-03-03T08:52:49;80.03;;;39.53;;
50689;SDS011;54375;48.298;11.238;2023-03-03T09:07:52;82.68;;;41.20;;
50689;SDS011;54375;48.298;11.238;2023-03-03T09:22:54;82.45;;;41.08;;
50689;SDS011;54375;48.298;11.238;2023-03-03T09:37:56;82.00;;;40.58;;
50689;SDS011;54375;48.298;11.238;2023-03-03T09:53:04;84.90;;;41.30;;
50689;SDS011;54375;48.298;11.238;2023-03-03T10:08:23;73.65;;;39.47;;
50689;SDS011;54375;48.298;11.238;2023-03-03T10:23:40;71.80;;;39.00;;
50689;SDS011;54375;48.298;11.238;2023-03-03T10:38:53;71.93;;;38.08;;
50689;SDS011;54375;48.298;11.238;2023-03-03T10:54:13;71.57;;;38.17;;
50689;SDS011;54375;48.298;11.238;2023-03-03T11:09:38;73.05;;;37.35;;
50689;SDS011;54375;48.298;11.238;2023-03-03T11:25:04;69.85;;;38.55;;
50689;SDS011;54375;48.298;11.238;2023-03-03T11:40:16;67.85;;;37.05;;
50689;SDS011;54375;48.298;11.238;2023-03-03T11:55:22;59.85;;;33.90;;
50689;SDS011;54375;48.298;11.238;2023-03-03T12:10:28;64.53;;;35.47;;
50689;SDS011;54375;48.298;11.238;2023-03-03T12:25:37;61.80;;;35.58;;
50689;SDS011;54375;48.298;11.238;2023-03-03T12:40:43;60.20;;;34.42;;
50689;SDS011;54375;48.298;11.238;2023-03-03T12:55:50;65.90;;;35.50;;
50689;SDS011;54375;48.298;11.238;2023-03-03T13:10:55;60.33;;;34.63;;
50689;SDS011;54375;48.298;11.238;2023-03-03T13:26:09;56.35;;;32.63;;
50689;SDS011;54375;48.298;11.238;2023-03-03T13:41:18;63.80;;;36.60;;
50689;SDS011;54375;48.298;11.238;2023-03-03T13:56:32;69.10;;;35.13;;
50689;SDS011;54375;48.298;11.238;2023-03-03T14:11:50;59.08;;;33.65;;
50689;SDS011;54375;48.298;11.238;2023-03-03T14:26:55;48.35;;;31.40;;
50689;SDS011;54375;48.298;11.238;2023-03-03T14:42:00;56.80;;;34.92;;
50689;SDS011;54375;48.298;11.238;2023-03-03T14:57:09;57.30;;;34.30;;
50689;SDS011;54375;48.298;11.238;2023-03-03T15:12:20;54.37;;;32.57;;
50689;SDS011;54375;48.298;11.238;2023-03-03T15:27:24;51.08;;;31.85;;
50689;SDS011;54375;48.298;11.238;2023-03-03T15:42:31;49.47;;;31.25;;
50689;SDS011;54375;48.298;11.238;2023-03-03T15:57:40;54.15;;;34.80;;
50689;SDS011;54375;48.298;11.238;2023-03-03T16:12:56;46.40;;;30.77;;
50689;SDS011;54375;48.298;11.238;2023-03-03T16:28:07;54.72;;;31.73;;
50689;SDS011;54375;48.298;11.238;2023-03-03T16:43:17;59.63;;;35.63;;
50689;SDS011;54375;48.298;11.238;2023-03-03T16:58:25;64.63;;;34.20;;
50689;SDS011;54375;48.298;11.238;2023-03-03T17:13:52;52.78;;;30.38;;
50689;SDS011;54375;48.298;11.238;2023-03-03T17:44:52;52.05;;;30.73;;
50689;SDS011;54375;48.298;11.238;2023-03-03T18:00:08;52.20;;;31.90;;
50689;SDS011;54375;48.298;11.238;2023-03-03T18:15:27;56.33;;;31.90;;
50689;SDS011;54375;48.298;11.238;2023-03-03T18:45:56;87.22;;;45.08;;
50689;SDS011;54375;48.298;11.238;2023-03-03T19:00:59;67.97;;;34.85;;
50689;SDS011;54375;48.298;11.238;2023-03-03T19:16:29;69.35;;;34.75;;
50689;SDS011;54375;48.298;11.238;2023-03-03T19:31:34;70.80;;;34.10;;
50689;SDS011;54375;48.298;11.238;2023-03-03T19:46:51;67.40;;;33.10;;
50689;SDS011;54375;48.298;11.238;2023-03-03T20:02:13;69.95;;;32.65;;
50689;SDS011;54375;48.298;11.238;2023-03-03T20:17:37;79.47;;;36.43;;
50689;SDS011;54375;48.298;11.238;2023-03-03T20:32:50;71.40;;;33.20;;
50689;SDS011;54375;48.298;11.238;2023-03-03T20:48:07;83.13;;;37.08;;
50689;SDS011;54375;48.298;11.238;2023-03-03T21:03:22;82.38;;;38.80;;
50689;SDS011;54375;48.298;11.238;2023-03-03T21:18:31;97.03;;;44.13;;
50689;SDS011;54375;48.298;11.238;2023-03-03T21:33:44;97.78;;;43.90;;
50689;SDS011;54375;48.298;11.238;2023-03-03T21:48:48;82.57;;;38.58;;
50689;SDS011;54375;48.298;11.238;2023-03-03T22:03:51;99.85;;;45.28;;
50689;SDS011;54375;48.298;11.238;2023-03-03T22:18:53;99.68;;;44.60;;
50689;SDS011;54375;48.298;11.238;2023-03-03T22:33:55;89.13;;;40.13;;
50689;SDS011;54375;48.298;11.238;2023-03-03T22:48:59;98.32;;;42.25;;
50689;SDS011;54375;48.298;11.238;2023-03-03T23:04:01;106.72;;;43.20;;
50689;SDS011;54375;48.298;11.238;2023-03-03T23:19:03;103.93;;;43.83;;
50689;SDS011;54375;48.298;11.238;2023-03-03T23:34:06;105.20;;;43.70;;
50689;SDS011;54375;48.298;11.238;2023-03-03T23:49:08;94.68;;;40.47;;
